createdAt,value
2024-01-17T00:00:14.250Z,9.661580
2024-01-17T00:01:14.224Z,9.661574
2024-01-17T00:02:14.161Z,9.661553
2024-01-17T00:03:14.252Z,9.661600
2024-01-17T00:04:14.134Z,9.661510
2024-01-17T00:05:14.134Z,9.661538
2024-01-17T00:06:14.193Z,9.661519
2024-01-17T00:07:14.230Z,9.661556
2024-01-17T00:08:14.118Z,9.661517
2024-01-17T00:09:14.112Z,9.661519
2024-01-17T00:10:14.086Z,9.661517
2024-01-17T00:11:14.120Z,9.661515
2024-01-17T00:12:14.181Z,9.661680
2024-01-17T00:13:14.063Z,9.661607
2024-01-17T00:14:14.082Z,9.661606
2024-01-17T00:15:14.072Z,9.661647
2024-01-17T00:16:14.075Z,9.661562
2024-01-17T00:17:14.082Z,9.661607
2024-01-17T00:18:14.144Z,9.661548
2024-01-17T00:19:14.222Z,9.661563
2024-01-17T00:20:14.043Z,9.661594
2024-01-17T00:21:14.013Z,9.661510
2024-01-17T00:22:14.036Z,9.661515
2024-01-17T00:23:14.036Z,9.661511
2024-01-17T00:24:14.027Z,9.661451
2024-01-17T00:25:13.997Z,9.661522
2024-01-17T00:26:13.991Z,9.661492
2024-01-17T00:27:14.005Z,9.661505
2024-01-17T00:28:14.019Z,9.661251
2024-01-17T00:29:13.986Z,9.661381
2024-01-17T00:30:14.101Z,9.661543
2024-01-17T00:31:14.000Z,9.661533
2024-01-17T00:32:13.990Z,9.661486
2024-01-17T00:33:14.088Z,9.661548
2024-01-17T00:34:14.090Z,9.661492
2024-01-17T00:35:13.992Z,9.661443
2024-01-17T00:36:14.026Z,9.661469
2024-01-17T00:37:13.957Z,9.661508
2024-01-17T00:38:13.989Z,9.661525
2024-01-17T00:39:14.030Z,9.661566
2024-01-17T00:40:13.927Z,9.661500
2024-01-17T00:41:13.936Z,9.661516
2024-01-17T00:42:13.945Z,9.661593
2024-01-17T00:43:13.973Z,9.661435
2024-01-17T00:44:13.930Z,9.661465
2024-01-17T00:45:13.992Z,9.661469
2024-01-17T00:46:13.918Z,9.661438
2024-01-17T00:47:14.058Z,9.661467
2024-01-17T00:48:13.978Z,9.661519
2024-01-17T00:49:13.909Z,9.661493
2024-01-17T00:50:13.873Z,9.661357
2024-01-17T00:51:13.986Z,9.661392
2024-01-17T00:52:13.887Z,9.661446
2024-01-17T00:53:13.873Z,9.661535
2024-01-17T00:54:13.873Z,9.661509
2024-01-17T00:55:13.869Z,9.661534
2024-01-17T00:56:13.829Z,9.661521
2024-01-17T00:57:13.836Z,9.661504
2024-01-17T00:58:13.840Z,9.661375
2024-01-17T00:59:13.871Z,9.661378
2024-01-17T01:00:13.841Z,9.661577
2024-01-17T01:01:13.876Z,9.661467
2024-01-17T01:02:13.811Z,9.661748
2024-01-17T01:03:13.886Z,9.661807
2024-01-17T01:04:13.854Z,9.661549
2024-01-17T01:05:13.812Z,9.661489
2024-01-17T01:06:13.810Z,9.661528
2024-01-17T01:07:13.885Z,9.661534
2024-01-17T01:08:13.807Z,9.661590
2024-01-17T01:09:13.978Z,9.661598
2024-01-17T01:10:13.791Z,9.661540
2024-01-17T01:11:13.796Z,9.661530
2024-01-17T01:12:13.804Z,9.661374
2024-01-17T01:13:13.819Z,9.661552
2024-01-17T01:14:13.791Z,9.661458
2024-01-17T01:15:13.792Z,9.661349
2024-01-17T01:16:13.758Z,9.661555
2024-01-17T01:17:13.732Z,9.661677
2024-01-17T01:18:13.936Z,9.661660
2024-01-17T01:19:13.853Z,9.661887
2024-01-17T01:20:13.744Z,9.661846
2024-01-17T01:21:13.722Z,9.661431
2024-01-17T01:22:13.705Z,9.661656
2024-01-17T01:23:13.816Z,9.661611
2024-01-17T01:24:13.748Z,9.661484
2024-01-17T01:25:13.716Z,9.661502
2024-01-17T01:26:13.703Z,9.661421
2024-01-17T01:27:13.792Z,9.661426
2024-01-17T01:28:13.728Z,9.661464
2024-01-17T01:29:13.683Z,9.661543
2024-01-17T01:30:13.809Z,9.661436
2024-01-17T01:31:13.716Z,9.661696
2024-01-17T01:32:13.657Z,9.661727
2024-01-17T01:33:13.765Z,9.661656
2024-01-17T01:34:16.327Z,9.661441
2024-01-17T01:35:14.710Z,9.661577
2024-01-17T01:36:13.710Z,9.661525
2024-01-17T01:37:13.648Z,9.661441
2024-01-17T01:38:13.657Z,9.661488
2024-01-17T01:39:13.750Z,9.661521
2024-01-17T01:40:13.665Z,9.661523
2024-01-17T01:41:13.677Z,9.661510
2024-01-17T01:42:13.698Z,9.661522
2024-01-17T01:43:13.636Z,9.661502
2024-01-17T01:44:13.636Z,9.661524
2024-01-17T01:45:13.694Z,9.661535
2024-01-17T01:46:13.640Z,9.661521
2024-01-17T01:47:13.625Z,9.661536
2024-01-17T01:48:13.685Z,9.661520
2024-01-17T01:49:13.817Z,9.661491
2024-01-17T01:50:13.619Z,9.661509
2024-01-17T01:51:13.647Z,9.661487
2024-01-17T01:52:13.576Z,9.661472
2024-01-17T01:53:13.580Z,9.661448
2024-01-17T01:54:13.635Z,9.661460
2024-01-17T01:55:13.682Z,9.661484
2024-01-17T01:56:13.583Z,9.661459
2024-01-17T01:57:13.614Z,9.661452
2024-01-17T01:58:13.543Z,9.661494
2024-01-17T01:59:13.549Z,9.661541
2024-01-17T02:00:13.598Z,9.661513
2024-01-17T02:01:13.605Z,9.661477
2024-01-17T02:02:13.561Z,9.661492
2024-01-17T02:03:13.588Z,9.661493
2024-01-17T02:04:13.614Z,9.661485
2024-01-17T02:05:13.590Z,9.661495
2024-01-17T02:06:13.600Z,9.661508
2024-01-17T02:07:13.521Z,9.661526
2024-01-17T02:08:13.534Z,9.661503
2024-01-17T02:09:13.524Z,9.661553
2024-01-17T02:10:13.521Z,9.661548
2024-01-17T02:11:13.608Z,9.661629
2024-01-17T02:12:13.549Z,9.661518
2024-01-17T02:13:13.504Z,9.661584
2024-01-17T02:14:13.501Z,9.661530
2024-01-17T02:15:13.546Z,9.661480
2024-01-17T02:16:13.501Z,9.661521
2024-01-17T02:17:13.474Z,9.661515
2024-01-17T02:18:13.533Z,9.661526
2024-01-17T02:19:13.495Z,9.661489
2024-01-17T02:20:13.497Z,9.661453
2024-01-17T02:21:13.542Z,9.661490
2024-01-17T02:22:13.442Z,9.661484
2024-01-17T02:23:13.449Z,9.661529
2024-01-17T02:24:13.452Z,9.661502
2024-01-17T02:25:13.425Z,9.661526
2024-01-17T02:26:13.447Z,9.661558
2024-01-17T02:27:13.550Z,9.661555
2024-01-17T02:28:13.433Z,9.661504
2024-01-17T02:29:13.427Z,9.661551
2024-01-17T02:30:13.542Z,9.661562
2024-01-17T02:31:13.508Z,9.661511
2024-01-17T02:32:13.372Z,9.661583
2024-01-17T02:33:13.506Z,9.661585
2024-01-17T02:34:13.589Z,9.661592
2024-01-17T02:35:13.392Z,9.661417
2024-01-17T02:36:13.538Z,9.661584
2024-01-17T02:37:13.359Z,9.661505
2024-01-17T02:38:13.352Z,9.661404
2024-01-17T02:39:13.460Z,9.661491
2024-01-17T02:40:13.391Z,9.661518
2024-01-17T02:41:13.369Z,9.661459
2024-01-17T02:42:13.483Z,9.661422
2024-01-17T02:43:13.346Z,9.661488
2024-01-17T02:44:13.346Z,9.661338
2024-01-17T02:45:13.418Z,9.661473
2024-01-17T02:46:13.337Z,9.661476
2024-01-17T02:47:13.336Z,9.661555
2024-01-17T02:48:13.391Z,9.661534
2024-01-17T02:49:13.377Z,9.661554
2024-01-17T02:50:13.306Z,9.661579
2024-01-17T02:51:13.374Z,9.661487
2024-01-17T02:52:13.342Z,9.661530
2024-01-17T02:53:13.304Z,9.661628
2024-01-17T02:54:13.289Z,9.661523
2024-01-17T02:55:13.300Z,9.661438
2024-01-17T02:56:13.282Z,9.661567
2024-01-17T02:57:13.350Z,9.661505
2024-01-17T02:58:13.301Z,9.661522
2024-01-17T02:59:13.357Z,9.661643
2024-01-17T03:00:13.349Z,9.661725
2024-01-17T03:01:13.310Z,9.661779
2024-01-17T03:02:13.254Z,9.661588
2024-01-17T03:03:13.349Z,9.661455
2024-01-17T03:04:13.251Z,9.661460
2024-01-17T03:05:13.278Z,9.661498
2024-01-17T03:06:13.377Z,9.661488
2024-01-17T03:07:13.275Z,9.661550
2024-01-17T03:08:13.231Z,9.661612
2024-01-17T03:09:13.313Z,9.661977
2024-01-17T03:10:13.261Z,9.661914
2024-01-17T03:11:13.237Z,9.661710
2024-01-17T03:12:13.243Z,9.661555
2024-01-17T03:13:13.220Z,9.661612
2024-01-17T03:14:13.208Z,9.661551
2024-01-17T03:15:13.310Z,9.661521
2024-01-17T03:16:13.217Z,9.661630
2024-01-17T03:17:13.201Z,9.661532
2024-01-17T03:18:13.284Z,9.661698
2024-01-17T03:19:13.361Z,9.661710
2024-01-17T03:20:13.167Z,9.661590
2024-01-17T03:21:13.198Z,9.661688
2024-01-17T03:22:13.200Z,9.661759
2024-01-17T03:23:13.191Z,9.661643
2024-01-17T03:24:13.188Z,9.661628
2024-01-17T03:25:13.136Z,9.661575
2024-01-17T03:26:13.153Z,9.661586
2024-01-17T03:27:13.168Z,9.661615
2024-01-17T03:28:13.184Z,9.661582
2024-01-17T03:29:13.129Z,9.661613
2024-01-17T03:30:13.464Z,9.661607
2024-01-17T03:31:13.268Z,9.661598
2024-01-17T03:32:13.148Z,9.661577
2024-01-17T03:33:13.203Z,9.661609
2024-01-17T03:34:13.174Z,9.661593
2024-01-17T03:35:13.108Z,9.661582
2024-01-17T03:36:13.322Z,9.661560
2024-01-17T03:37:13.086Z,9.661512
2024-01-17T03:38:13.100Z,9.661447
2024-01-17T03:39:13.119Z,9.661273
2024-01-17T03:40:13.106Z,9.661125
2024-01-17T03:41:13.127Z,9.661201
2024-01-17T03:42:13.093Z,9.661209
2024-01-17T03:43:13.099Z,9.661093
2024-01-17T03:44:13.070Z,9.661012
2024-01-17T03:45:13.056Z,9.660930
2024-01-17T03:46:13.062Z,9.661047
2024-01-17T03:47:13.160Z,9.661114
2024-01-17T03:48:13.149Z,9.661122
2024-01-17T03:49:13.201Z,9.661268
2024-01-17T03:50:13.028Z,9.661464
2024-01-17T03:51:13.084Z,9.661411
2024-01-17T03:52:13.074Z,9.661324
2024-01-17T03:53:13.042Z,9.661355
2024-01-17T03:54:13.077Z,9.661415
2024-01-17T03:55:13.063Z,9.661453
2024-01-17T03:56:13.032Z,9.661431
2024-01-17T03:57:13.095Z,9.661429
2024-01-17T03:58:13.029Z,9.661449
2024-01-17T03:59:12.987Z,9.661457
2024-01-17T04:00:13.063Z,9.661487
2024-01-17T04:01:13.066Z,9.661469
2024-01-17T04:02:13.001Z,9.661445
2024-01-17T04:03:13.193Z,9.661546
2024-01-17T04:04:12.997Z,9.661490
2024-01-17T04:05:13.012Z,9.661476
2024-01-17T04:06:13.025Z,9.661510
2024-01-17T04:07:13.032Z,9.661493
2024-01-17T04:08:12.932Z,9.661492
2024-01-17T04:09:13.020Z,9.661446
2024-01-17T04:10:12.931Z,9.661424
2024-01-17T04:11:12.944Z,9.661451
2024-01-17T04:12:12.964Z,9.661491
2024-01-17T04:13:12.972Z,9.661476
2024-01-17T04:14:12.966Z,9.661528
2024-01-17T04:15:13.135Z,9.661490
2024-01-17T04:16:12.933Z,9.661504
2024-01-17T04:17:12.937Z,9.661515
2024-01-17T04:18:13.074Z,9.661530
2024-01-17T04:19:13.118Z,9.661508
2024-01-17T04:20:12.912Z,9.661458
2024-01-17T04:21:13.966Z,9.661437
2024-01-17T04:22:12.916Z,9.661448
2024-01-17T04:23:12.925Z,9.661439
2024-01-17T04:24:12.934Z,9.661462
2024-01-17T04:25:13.491Z,9.661425
2024-01-17T04:26:12.880Z,9.661420
2024-01-17T04:27:13.009Z,9.661417
2024-01-17T04:28:12.925Z,9.661531
2024-01-17T04:29:12.854Z,9.661574
2024-01-17T04:30:13.033Z,9.661503
2024-01-17T04:31:12.871Z,9.661488
2024-01-17T04:32:12.842Z,9.661448
2024-01-17T04:33:12.892Z,9.661555
2024-01-17T04:34:12.949Z,9.661124
2024-01-17T04:35:12.827Z,9.661364
2024-01-17T04:36:12.842Z,9.661563
2024-01-17T04:37:12.803Z,9.661323
2024-01-17T04:38:12.800Z,9.661437
2024-01-17T04:39:13.172Z,9.661171
2024-01-17T04:40:12.783Z,9.661315
2024-01-17T04:41:12.769Z,9.661469
2024-01-17T04:42:12.872Z,9.661958
2024-01-17T04:43:12.808Z,9.661701
2024-01-17T04:44:12.807Z,9.661598
2024-01-17T04:45:12.774Z,9.661755
2024-01-17T04:46:12.772Z,9.661570
2024-01-17T04:47:12.720Z,9.661345
2024-01-17T04:48:12.959Z,9.661634
2024-01-17T04:49:12.895Z,9.661346
2024-01-17T04:50:12.849Z,9.660881
2024-01-17T04:51:13.915Z,9.661666
2024-01-17T04:52:13.711Z,9.661460
2024-01-17T04:53:12.701Z,9.661097
2024-01-17T04:54:12.727Z,9.661476
2024-01-17T04:55:12.710Z,9.661337
2024-01-17T04:56:12.778Z,9.661460
2024-01-17T04:57:12.680Z,9.661571
2024-01-17T04:58:12.674Z,9.661564
2024-01-17T04:59:12.701Z,9.661456
2024-01-17T05:00:12.713Z,9.661413
2024-01-17T05:01:12.696Z,9.661622
2024-01-17T05:02:12.694Z,9.661853
2024-01-17T05:03:12.748Z,9.661826
2024-01-17T05:04:12.649Z,9.662087
2024-01-17T05:05:12.800Z,9.661746
2024-01-17T05:06:12.786Z,9.661635
2024-01-17T05:07:12.748Z,9.661624
2024-01-17T05:08:12.671Z,9.661545
2024-01-17T05:09:12.634Z,9.661551
2024-01-17T05:10:12.646Z,9.661514
2024-01-17T05:11:12.611Z,9.661502
2024-01-17T05:12:12.975Z,9.661562
2024-01-17T05:13:13.623Z,9.661596
2024-01-17T05:14:12.630Z,9.661507
2024-01-17T05:15:12.605Z,9.661489
2024-01-17T05:16:12.601Z,9.661444
2024-01-17T05:17:12.626Z,9.661566
2024-01-17T05:18:12.728Z,9.661295
2024-01-17T05:19:16.092Z,9.661433
2024-01-17T05:20:12.579Z,9.661415
2024-01-17T05:21:12.607Z,9.661462
2024-01-17T05:22:12.582Z,9.661338
2024-01-17T05:23:13.662Z,9.661504
2024-01-17T05:24:12.656Z,9.661304
2024-01-17T05:25:12.559Z,9.661209
2024-01-17T05:26:12.552Z,9.661165
2024-01-17T05:27:12.575Z,9.661073
2024-01-17T05:28:12.560Z,9.660973
2024-01-17T05:29:12.568Z,9.661057
2024-01-17T05:30:15.967Z,9.661057
2024-01-17T05:31:13.603Z,9.661057
2024-01-17T05:32:12.519Z,9.661057
2024-01-17T05:33:12.544Z,9.661057
2024-01-17T05:34:12.616Z,9.661057
2024-01-17T05:35:12.487Z,9.661057
2024-01-17T05:36:12.549Z,9.661057
2024-01-17T05:37:12.521Z,9.661057
2024-01-17T05:38:12.491Z,9.661057
2024-01-17T05:39:12.633Z,9.661057
2024-01-17T05:40:12.468Z,9.661057
2024-01-17T05:41:12.505Z,9.661057
2024-01-17T05:42:12.578Z,9.661368
2024-01-17T05:43:12.448Z,9.661219
2024-01-17T05:44:15.507Z,9.661174
2024-01-17T05:45:13.567Z,9.660963
2024-01-17T05:46:12.478Z,9.661448
2024-01-17T05:47:12.453Z,9.661466
2024-01-17T05:48:12.532Z,9.661449
2024-01-17T05:49:12.529Z,9.661453
2024-01-17T05:50:12.424Z,9.661488
2024-01-17T05:51:12.523Z,9.661486
2024-01-17T05:52:12.464Z,9.661503
2024-01-17T05:53:12.403Z,9.661479
2024-01-17T05:54:12.485Z,9.661460
2024-01-17T05:55:12.406Z,9.661461
2024-01-17T05:56:12.421Z,9.661475
2024-01-17T05:57:12.396Z,9.661427
2024-01-17T05:58:12.399Z,9.661394
2024-01-17T05:59:12.374Z,9.661417
2024-01-17T06:00:12.624Z,9.661345
2024-01-17T06:01:12.438Z,9.661377
2024-01-17T06:02:12.371Z,9.661382
2024-01-17T06:03:12.415Z,9.661417
2024-01-17T06:04:12.382Z,9.661456
2024-01-17T06:05:12.377Z,9.661505
2024-01-17T06:06:12.382Z,9.661539
2024-01-17T06:07:12.495Z,9.661571
2024-01-17T06:08:12.318Z,9.661563
2024-01-17T06:09:12.345Z,9.661535
2024-01-17T06:10:12.341Z,9.661518
2024-01-17T06:11:12.450Z,9.661505
2024-01-17T06:12:12.361Z,9.661494
2024-01-17T06:13:12.310Z,9.661489
2024-01-17T06:14:14.760Z,9.661469
2024-01-17T06:15:12.309Z,9.661506
2024-01-17T06:16:12.309Z,9.661433
2024-01-17T06:17:12.347Z,9.661469
2024-01-17T06:18:12.380Z,9.661467
2024-01-17T06:19:12.337Z,9.661535
2024-01-17T06:20:12.278Z,9.661454
2024-01-17T06:21:12.354Z,9.661402
2024-01-17T06:22:12.293Z,9.661507
2024-01-17T06:23:12.322Z,9.661354
2024-01-17T06:24:12.307Z,9.661464
2024-01-17T06:25:12.253Z,9.661561
2024-01-17T06:26:12.267Z,9.661456
2024-01-17T06:27:12.326Z,9.661489
2024-01-17T06:28:12.233Z,9.661516
2024-01-17T06:29:12.255Z,9.661516
2024-01-17T06:30:12.337Z,9.661463
2024-01-17T06:31:12.325Z,9.661455
2024-01-17T06:32:12.234Z,9.661412
2024-01-17T06:33:12.305Z,9.661451
2024-01-17T06:34:12.367Z,9.661471
2024-01-17T06:35:12.213Z,9.661440
2024-01-17T06:36:12.295Z,9.661438
2024-01-17T06:37:12.603Z,9.661489
2024-01-17T06:38:12.175Z,9.661478
2024-01-17T06:39:12.249Z,9.661456
2024-01-17T06:40:12.261Z,9.661493
2024-01-17T06:41:12.168Z,9.661469
2024-01-17T06:42:12.314Z,9.661512
2024-01-17T06:43:12.167Z,9.661489
2024-01-17T06:44:12.151Z,9.661529
2024-01-17T06:45:12.410Z,9.661543
2024-01-17T06:46:12.162Z,9.661421
2024-01-17T06:47:12.143Z,9.661452
2024-01-17T06:48:12.351Z,9.661470
2024-01-17T06:49:12.209Z,9.661542
2024-01-17T06:50:12.139Z,9.661434
2024-01-17T06:51:12.170Z,9.661454
2024-01-17T06:52:12.160Z,9.661527
2024-01-17T06:53:12.116Z,9.661561
2024-01-17T06:54:12.222Z,9.661482
2024-01-17T06:55:13.446Z,9.661489
2024-01-17T06:56:12.097Z,9.661485
2024-01-17T06:57:12.128Z,9.661454
2024-01-17T06:58:12.100Z,9.661483
2024-01-17T06:59:12.089Z,9.661527
2024-01-17T07:00:12.173Z,9.661573
2024-01-17T07:01:12.156Z,9.661551
2024-01-17T07:02:12.044Z,9.661538
2024-01-17T07:03:12.214Z,9.661559
2024-01-17T07:04:12.097Z,9.661625
2024-01-17T07:05:12.133Z,9.661608
2024-01-17T07:06:12.362Z,9.661628
2024-01-17T07:07:12.029Z,9.661545
2024-01-17T07:08:12.133Z,9.661475
2024-01-17T07:09:12.071Z,9.661416
2024-01-17T07:10:12.034Z,9.661520
2024-01-17T07:11:12.021Z,9.661676
2024-01-17T07:12:12.061Z,9.661502
2024-01-17T07:13:12.049Z,9.661398
2024-01-17T07:14:12.029Z,9.661396
2024-01-17T07:15:12.096Z,9.661428
2024-01-17T07:16:11.997Z,9.661523
2024-01-17T07:17:12.030Z,9.661467
2024-01-17T07:18:12.097Z,9.661516
2024-01-17T07:19:11.985Z,9.661665
2024-01-17T07:20:12.006Z,9.661376
2024-01-17T07:21:11.995Z,9.661329
2024-01-17T07:22:11.973Z,9.661818
2024-01-17T07:23:12.002Z,9.661991
2024-01-17T07:24:12.232Z,9.661836
2024-01-17T07:25:11.946Z,9.661790
2024-01-17T07:26:11.954Z,9.661625
2024-01-17T07:27:12.021Z,9.661576
2024-01-17T07:28:11.968Z,9.661590
2024-01-17T07:29:12.003Z,9.661584
2024-01-17T07:30:12.015Z,9.661580
2024-01-17T07:31:11.901Z,9.661442
2024-01-17T07:32:11.989Z,9.661611
2024-01-17T07:33:12.043Z,9.661520
2024-01-17T07:34:12.029Z,9.661512
2024-01-17T07:35:11.911Z,9.661554
2024-01-17T07:36:12.195Z,9.661568
2024-01-17T07:37:15.156Z,9.661547
2024-01-17T07:38:12.906Z,9.661581
2024-01-17T07:39:12.006Z,9.661543
2024-01-17T07:40:11.997Z,9.661594
2024-01-17T07:41:11.902Z,9.661615
2024-01-17T07:42:11.951Z,9.661599
2024-01-17T07:43:11.852Z,9.661549
2024-01-17T07:44:11.854Z,9.661536
2024-01-17T07:45:12.019Z,9.661523
2024-01-17T07:46:11.850Z,9.661541
2024-01-17T07:47:11.830Z,9.661551
2024-01-17T07:48:12.018Z,9.661483
2024-01-17T07:49:11.997Z,9.661433
2024-01-17T07:50:11.851Z,9.661494
2024-01-17T07:51:11.901Z,9.661557
2024-01-17T07:52:11.836Z,9.661510
2024-01-17T07:53:11.794Z,9.661500
2024-01-17T07:54:11.833Z,9.661433
2024-01-17T07:55:11.806Z,9.661545
2024-01-17T07:56:11.803Z,9.661566
2024-01-17T07:57:11.828Z,9.661522
2024-01-17T07:58:11.781Z,9.661491
2024-01-17T07:59:11.794Z,9.661479
2024-01-17T08:00:11.858Z,9.661566
2024-01-17T08:01:11.811Z,9.661623
2024-01-17T08:02:11.780Z,9.661618
2024-01-17T08:03:11.906Z,9.661472
2024-01-17T08:04:11.818Z,9.661499
2024-01-17T08:05:11.802Z,9.661484
2024-01-17T08:06:11.790Z,9.661442
2024-01-17T08:07:11.811Z,9.661528
2024-01-17T08:08:11.721Z,9.661538
2024-01-17T08:09:11.808Z,9.661530
2024-01-17T08:10:11.718Z,9.661598
2024-01-17T08:11:11.731Z,9.661531
2024-01-17T08:12:11.735Z,9.661544
2024-01-17T08:13:11.715Z,9.661532
2024-01-17T08:14:11.732Z,9.661363
2024-01-17T08:15:11.762Z,9.661407
2024-01-17T08:16:11.741Z,9.661516
2024-01-17T08:17:11.733Z,9.661491
2024-01-17T08:18:11.838Z,9.661506
2024-01-17T08:19:11.819Z,9.661446
2024-01-17T08:20:11.741Z,9.661465
2024-01-17T08:21:11.779Z,9.661558
2024-01-17T08:22:11.654Z,9.661520
2024-01-17T08:23:11.676Z,9.661423
2024-01-17T08:24:11.740Z,9.661389
2024-01-17T08:25:11.683Z,9.661443
2024-01-17T08:26:11.685Z,9.661537
2024-01-17T08:27:11.660Z,9.661505
2024-01-17T08:28:11.647Z,9.661547
2024-01-17T08:29:11.820Z,9.661435
2024-01-17T08:30:12.103Z,9.661368
2024-01-17T08:31:11.626Z,9.661482
2024-01-17T08:32:11.650Z,9.661455
2024-01-17T08:33:11.678Z,9.661505
2024-01-17T08:34:11.822Z,9.661508
2024-01-17T08:35:11.680Z,9.661431
2024-01-17T08:36:11.661Z,9.661444
2024-01-17T08:37:11.613Z,9.661404
2024-01-17T08:38:11.605Z,9.661466
2024-01-17T08:39:11.663Z,9.661403
2024-01-17T08:40:11.596Z,9.661298
2024-01-17T08:41:11.584Z,9.661193
2024-01-17T08:42:11.734Z,9.661225
2024-01-17T08:43:11.559Z,9.661408
2024-01-17T08:44:11.576Z,9.661363
2024-01-17T08:45:11.785Z,9.661416
2024-01-17T08:46:11.563Z,9.661663
2024-01-17T08:47:11.679Z,9.661586
2024-01-17T08:48:11.623Z,9.661654
2024-01-17T08:49:11.609Z,9.661452
2024-01-17T08:50:11.537Z,9.661487
2024-01-17T08:51:11.632Z,9.661527
2024-01-17T08:52:11.534Z,9.661552
2024-01-17T08:53:11.541Z,9.661531
2024-01-17T08:54:11.683Z,9.661499
2024-01-17T08:55:11.528Z,9.661518
2024-01-17T08:56:11.530Z,9.661587
2024-01-17T08:57:12.547Z,9.661519
2024-01-17T08:58:11.517Z,9.661504
2024-01-17T08:59:11.541Z,9.661444
2024-01-17T09:00:11.532Z,9.661417
2024-01-17T09:01:11.578Z,9.661465
2024-01-17T09:02:11.495Z,9.661514
2024-01-17T09:03:11.522Z,9.661437
2024-01-17T09:04:11.489Z,9.661448
2024-01-17T09:05:11.522Z,9.661503
2024-01-17T09:06:11.504Z,9.661530
2024-01-17T09:07:11.527Z,9.661530
2024-01-17T09:08:11.572Z,9.661540
2024-01-17T09:09:11.538Z,9.661518
2024-01-17T09:10:11.454Z,9.661534
2024-01-17T09:11:11.463Z,9.661533
2024-01-17T09:12:11.457Z,9.661532
2024-01-17T09:13:11.544Z,9.661544
2024-01-17T09:14:11.441Z,9.661545
2024-01-17T09:15:11.445Z,9.661576
2024-01-17T09:16:11.387Z,9.661524
2024-01-17T09:17:11.414Z,9.661532
2024-01-17T09:18:11.450Z,9.661525
2024-01-17T09:19:11.511Z,9.661485
2024-01-17T09:20:11.465Z,9.661558
2024-01-17T09:21:11.405Z,9.661475
2024-01-17T09:22:11.364Z,9.661474
2024-01-17T09:23:11.431Z,9.661516
2024-01-17T09:24:11.416Z,9.661468
2024-01-17T09:25:11.378Z,9.661480
2024-01-17T09:26:11.338Z,9.661498
2024-01-17T09:27:11.492Z,9.661519
2024-01-17T09:28:11.368Z,9.661468
2024-01-17T09:29:11.418Z,9.661510
2024-01-17T09:30:11.367Z,9.661524
2024-01-17T09:31:11.334Z,9.661543
2024-01-17T09:32:15.344Z,9.661550
2024-01-17T09:33:12.520Z,9.661523
2024-01-17T09:34:11.398Z,9.661277
2024-01-17T09:35:11.297Z,9.661355
2024-01-17T09:36:11.354Z,9.661379
2024-01-17T09:37:11.325Z,9.661670
2024-01-17T09:38:11.294Z,9.661776
2024-01-17T09:39:11.525Z,9.661510
2024-01-17T09:40:11.331Z,9.661124
2024-01-17T09:41:11.374Z,9.661312
2024-01-17T09:42:11.359Z,9.661696
2024-01-17T09:43:12.893Z,9.661607
2024-01-17T09:44:12.268Z,9.661478
2024-01-17T09:45:11.431Z,9.661502
2024-01-17T09:46:11.287Z,9.661512
2024-01-17T09:47:11.283Z,9.661717
2024-01-17T09:48:11.331Z,9.661684
2024-01-17T09:49:11.649Z,9.661564
2024-01-17T09:50:11.315Z,9.661371
2024-01-17T09:51:11.357Z,9.661380
2024-01-17T09:52:11.270Z,9.661331
2024-01-17T09:53:11.264Z,9.661446
2024-01-17T09:54:12.758Z,9.661621
2024-01-17T09:55:11.248Z,9.661596
2024-01-17T09:56:11.228Z,9.661462
2024-01-17T09:57:11.285Z,9.661480
2024-01-17T09:58:11.218Z,9.661351
2024-01-17T09:59:11.209Z,9.661457
2024-01-17T10:00:12.986Z,9.661605
2024-01-17T10:01:11.250Z,9.661510
2024-01-17T10:02:11.214Z,9.661544
2024-01-17T10:03:11.280Z,9.661510
2024-01-17T10:04:11.224Z,9.661551
2024-01-17T10:05:11.213Z,9.661535
2024-01-17T10:06:11.265Z,9.661510
2024-01-17T10:07:11.169Z,9.661517
2024-01-17T10:08:12.177Z,9.661502
2024-01-17T10:09:11.333Z,9.661475
2024-01-17T10:10:11.170Z,9.661469
2024-01-17T10:11:11.198Z,9.661474
2024-01-17T10:12:11.178Z,9.661534
2024-01-17T10:13:11.146Z,9.661507
2024-01-17T10:14:11.130Z,9.661531
2024-01-17T10:15:11.194Z,9.661527
2024-01-17T10:16:11.187Z,9.661585
2024-01-17T10:17:11.135Z,9.661517
2024-01-17T10:18:11.207Z,9.661613
2024-01-17T10:19:11.319Z,9.661456
2024-01-17T10:20:11.179Z,9.661458
2024-01-17T10:21:11.238Z,9.661364
2024-01-17T10:22:11.119Z,9.661605
2024-01-17T10:23:11.101Z,9.661633
2024-01-17T10:24:11.110Z,9.661689
2024-01-17T10:25:11.084Z,9.661782
2024-01-17T10:26:11.065Z,9.661795
2024-01-17T10:27:11.188Z,9.661692
2024-01-17T10:28:11.050Z,9.661550
2024-01-17T10:29:11.050Z,9.661609
2024-01-17T10:30:11.063Z,9.661643
2024-01-17T10:31:11.041Z,9.661603
2024-01-17T10:32:11.096Z,9.661564
2024-01-17T10:33:11.147Z,9.661527
2024-01-17T10:34:11.229Z,9.661450
2024-01-17T10:35:11.108Z,9.661384
2024-01-17T10:36:11.054Z,9.661389
2024-01-17T10:37:11.049Z,9.661401
2024-01-17T10:38:11.019Z,9.661449
2024-01-17T10:39:11.037Z,9.661517
2024-01-17T10:40:11.106Z,9.661546
2024-01-17T10:41:11.013Z,9.661547
2024-01-17T10:42:11.010Z,9.661547
2024-01-17T10:43:11.434Z,9.661524
2024-01-17T10:44:10.975Z,9.661471
2024-01-17T10:45:11.049Z,9.661559
2024-01-17T10:46:10.989Z,9.661556
2024-01-17T10:47:11.794Z,9.661546
2024-01-17T10:48:12.075Z,9.661534
2024-01-17T10:49:11.141Z,9.661544
2024-01-17T10:50:10.977Z,9.661533
2024-01-17T10:51:10.985Z,9.661539
2024-01-17T10:52:10.947Z,9.661572
2024-01-17T10:53:10.962Z,9.661549
2024-01-17T10:54:10.985Z,9.661551
2024-01-17T10:55:10.947Z,9.661538
2024-01-17T10:56:10.944Z,9.661543
2024-01-17T10:57:10.987Z,9.661547
2024-01-17T10:58:10.964Z,9.661549
2024-01-17T10:59:10.975Z,9.661547
2024-01-17T11:00:10.995Z,9.661548
2024-01-17T11:01:10.951Z,9.661551
2024-01-17T11:02:10.910Z,9.661536
2024-01-17T11:03:11.079Z,9.661597
2024-01-17T11:04:10.984Z,9.661550
2024-01-17T11:05:10.900Z,9.661509
2024-01-17T11:06:10.912Z,9.661428
2024-01-17T11:07:10.886Z,9.661457
2024-01-17T11:08:10.906Z,9.661502
2024-01-17T11:09:10.946Z,9.661553
2024-01-17T11:10:10.894Z,9.661507
2024-01-17T11:11:10.834Z,9.661547
2024-01-17T11:12:11.928Z,9.661489
2024-01-17T11:13:10.905Z,9.661505
2024-01-17T11:14:10.874Z,9.661499
2024-01-17T11:15:10.885Z,9.661552
2024-01-17T11:16:10.861Z,9.661624
2024-01-17T11:17:15.063Z,9.661531
2024-01-17T11:18:11.888Z,9.661549
2024-01-17T11:19:11.012Z,9.661583
2024-01-17T11:20:10.846Z,9.661563
2024-01-17T11:21:10.856Z,9.661585
2024-01-17T11:22:10.797Z,9.661528
2024-01-17T11:23:10.821Z,9.661571
2024-01-17T11:24:10.955Z,9.661639
2024-01-17T11:25:10.779Z,9.661541
2024-01-17T11:26:10.814Z,9.661630
2024-01-17T11:27:10.863Z,9.661689
2024-01-17T11:28:10.801Z,9.661648
2024-01-17T11:29:10.809Z,9.661661
2024-01-17T11:30:10.827Z,9.661531
2024-01-17T11:31:10.828Z,9.661749
2024-01-17T11:32:10.801Z,9.661816
2024-01-17T11:33:10.810Z,9.661819
2024-01-17T11:34:10.874Z,9.661814
2024-01-17T11:35:10.807Z,9.661735
2024-01-17T11:36:10.813Z,9.661677
2024-01-17T11:37:10.749Z,9.661562
2024-01-17T11:38:10.735Z,9.661574
2024-01-17T11:39:11.654Z,9.661519
2024-01-17T11:40:10.767Z,9.661487
2024-01-17T11:41:10.807Z,9.661453
2024-01-17T11:42:10.729Z,9.661329
2024-01-17T11:43:10.726Z,9.661480
2024-01-17T11:44:10.721Z,9.661644